createdAt,value
2022-12-18T00:00:12.106Z,28.50
2022-12-18T00:05:11.455Z,26.70
2022-12-18T00:10:11.768Z,32.20
2022-12-18T00:15:11.770Z,38.80
2022-12-18T00:20:11.726Z,26.80
2022-12-18T00:25:11.587Z,28.90
2022-12-18T00:30:12.406Z,25.30
2022-12-18T00:35:11.304Z,22.20
2022-12-18T00:40:12.410Z,21.90
2022-12-18T00:45:13.217Z,21.50
2022-12-18T00:50:11.580Z,23.70
2022-12-18T00:55:12.250Z,23.20
2022-12-18T01:00:14.943Z,21.60
2022-12-18T01:05:12.863Z,22.90
2022-12-18T01:10:12.934Z,20.80
2022-12-18T01:15:13.296Z,20.50
2022-12-18T01:20:12.549Z,25.10
2022-12-18T01:25:11.623Z,22.30
2022-12-18T01:30:11.960Z,23.40
2022-12-18T01:35:11.345Z,22.70
2022-12-18T01:40:12.107Z,22.70
2022-12-18T01:45:24.826Z,20.30
2022-12-18T01:50:14.829Z,21.00
2022-12-18T01:55:13.177Z,20.60
2022-12-18T02:00:14.697Z,21.50
2022-12-18T02:05:14.260Z,19.00
2022-12-18T02:10:17.578Z,20.60
2022-12-18T02:15:16.549Z,20.60
2022-12-18T02:20:16.562Z,19.30
2022-12-18T02:25:24.632Z,17.80
2022-12-18T02:30:11.880Z,21.90
2022-12-18T02:35:14.878Z,20.60
2022-12-18T02:40:13.846Z,16.70
2022-12-18T02:45:11.350Z,19.10
2022-12-18T02:50:20.035Z,17.60
2022-12-18T02:55:26.412Z,21.10
2022-12-18T03:00:15.327Z,24.70
2022-12-18T03:05:16.549Z,22.10
2022-12-18T03:10:16.767Z,19.90
2022-12-18T03:15:17.944Z,22.60
2022-12-18T03:20:14.884Z,18.00
2022-12-18T03:25:13.797Z,20.10
2022-12-18T03:30:13.984Z,17.50
2022-12-18T03:35:14.284Z,17.20
2022-12-18T03:40:11.733Z,19.00
2022-12-18T03:45:18.947Z,17.50
2022-12-18T03:50:16.504Z,18.40
2022-12-18T03:55:12.421Z,15.50
2022-12-18T04:00:13.588Z,19.20
2022-12-18T04:05:12.995Z,33.80
2022-12-18T04:10:12.799Z,17.00
2022-12-18T04:15:11.932Z,17.40
2022-12-18T04:20:11.318Z,20.40
2022-12-18T04:25:11.807Z,15.90
2022-12-18T04:30:11.668Z,15.30
2022-12-18T04:35:12.139Z,15.40
2022-12-18T04:40:12.475Z,14.00
2022-12-18T04:45:11.266Z,14.10
2022-12-18T04:50:11.130Z,14.00
2022-12-18T04:55:11.342Z,13.80
2022-12-18T05:00:12.664Z,15.50
2022-12-18T05:05:11.151Z,15.00
2022-12-18T05:10:11.520Z,15.10
2022-12-18T05:15:11.054Z,14.90
2022-12-18T05:20:11.211Z,15.60
2022-12-18T05:25:11.186Z,15.00
2022-12-18T05:30:12.225Z,14.60
2022-12-18T05:35:11.593Z,14.00
2022-12-18T05:40:12.535Z,15.20
2022-12-18T05:45:11.177Z,15.40
2022-12-18T05:50:11.272Z,15.00
2022-12-18T05:55:11.339Z,15.80
2022-12-18T06:00:11.816Z,16.30
2022-12-18T06:05:11.371Z,17.00
2022-12-18T06:10:11.650Z,18.00
2022-12-18T06:15:11.506Z,18.70
2022-12-18T06:20:11.323Z,18.90
2022-12-18T06:25:11.524Z,18.50
2022-12-18T06:30:12.640Z,20.70
2022-12-18T06:35:11.409Z,21.20
2022-12-18T06:40:11.051Z,22.20
2022-12-18T06:45:11.553Z,22.30
2022-12-18T06:50:12.031Z,22.70
2022-12-18T06:55:11.858Z,25.70
2022-12-18T07:00:11.522Z,25.40
2022-12-18T07:05:11.504Z,27.30
2022-12-18T07:10:11.187Z,27.70
2022-12-18T07:15:11.107Z,29.70
2022-12-18T07:20:11.491Z,29.70
2022-12-18T07:25:11.038Z,29.00
2022-12-18T07:30:11.409Z,29.60
2022-12-18T07:35:11.093Z,31.00
2022-12-18T07:40:11.706Z,31.10
2022-12-18T07:45:10.974Z,31.80
2022-12-18T07:50:11.257Z,32.00
2022-12-18T07:55:10.943Z,32.10
2022-12-18T08:00:12.805Z,31.90
2022-12-18T08:05:11.085Z,32.90
2022-12-18T08:10:10.955Z,35.10
2022-12-18T08:15:11.271Z,33.00
2022-12-18T08:20:14.937Z,43.20
2022-12-18T08:25:11.225Z,42.90
2022-12-18T08:30:11.446Z,32.60
2022-12-18T08:35:12.027Z,39.00
2022-12-18T08:40:11.270Z,30.80
2022-12-18T08:45:11.384Z,38.50
2022-12-18T08:50:12.304Z,49.20
2022-12-18T08:55:10.908Z,52.00
2022-12-18T09:00:13.220Z,41.00
2022-12-18T09:05:11.091Z,66.80
2022-12-18T09:10:10.933Z,32.40
2022-12-18T09:15:11.461Z,27.30
2022-12-18T09:20:11.167Z,28.00
2022-12-18T09:25:10.921Z,33.20
2022-12-18T09:30:11.132Z,53.10
2022-12-18T09:35:11.104Z,44.40
2022-12-18T09:40:13.960Z,43.90
2022-12-18T09:45:15.045Z,27.30
2022-12-18T09:50:22.302Z,65.70
2022-12-18T09:55:20.850Z,48.40
2022-12-18T10:00:16.577Z,33.40
2022-12-18T10:05:14.363Z,44.50
2022-12-18T10:10:27.145Z,78.30
2022-12-18T10:15:17.452Z,62.50
2022-12-18T10:20:15.160Z,31.50
2022-12-18T10:25:18.944Z,58.10
2022-12-18T10:30:14.899Z,27.90
2022-12-18T10:35:18.560Z,42.30
2022-12-18T10:40:19.906Z,31.90
2022-12-18T10:45:13.970Z,35.20
2022-12-18T10:50:26.183Z,43.10
2022-12-18T10:55:16.500Z,39.00
2022-12-18T11:00:23.552Z,53.30
2022-12-18T11:05:26.233Z,53.20
2022-12-18T11:10:17.946Z,41.70
2022-12-18T11:15:15.838Z,54.30
2022-12-18T11:20:23.736Z,39.50
2022-12-18T11:25:35.043Z,77.20
2022-12-18T11:30:22.345Z,70.60
2022-12-18T11:35:16.977Z,61.10
2022-12-18T11:40:15.891Z,48.20
2022-12-18T11:45:26.031Z,57.80
2022-12-18T11:50:14.553Z,68.00
2022-12-18T11:55:15.145Z,69.50
2022-12-18T12:00:15.199Z,48.70
2022-12-18T12:05:20.951Z,64.00
2022-12-18T12:10:26.059Z,78.40
2022-12-18T12:15:18.553Z,43.00
2022-12-18T12:20:18.727Z,65.80
2022-12-18T12:25:21.278Z,95.50
2022-12-18T12:30:18.453Z,46.10
2022-12-18T12:35:20.230Z,50.20
2022-12-18T12:40:48.379Z,40.80
2022-12-18T12:45:18.466Z,40.60
2022-12-18T12:50:16.542Z,39.70
2022-12-18T12:55:17.561Z,39.30
2022-12-18T13:00:14.803Z,39.80
2022-12-18T13:05:19.115Z,38.80
2022-12-18T13:10:14.416Z,38.90
2022-12-18T13:15:15.585Z,38.10
2022-12-18T13:20:14.089Z,37.30
2022-12-18T13:25:30.614Z,37.20
2022-12-18T13:30:30.424Z,38.70
2022-12-18T13:35:30.631Z,37.20
2022-12-18T13:40:30.418Z,37.00
2022-12-18T13:45:30.450Z,35.70
2022-12-18T13:50:22.035Z,35.20
2022-12-18T13:55:17.954Z,36.70
2022-12-18T14:00:24.564Z,37.10
2022-12-18T14:05:22.019Z,34.30
2022-12-18T14:10:42.249Z,34.00
2022-12-18T14:15:24.631Z,32.20
2022-12-18T14:20:14.200Z,34.10
2022-12-18T14:25:16.583Z,33.90
2022-12-18T14:30:25.230Z,34.80
2022-12-18T14:35:13.590Z,33.90
2022-12-18T14:40:13.406Z,33.30
2022-12-18T14:45:30.609Z,34.30
2022-12-18T14:50:14.170Z,37.20
2022-12-18T14:55:14.992Z,35.80
2022-12-18T15:00:17.303Z,36.70
2022-12-18T15:05:19.404Z,38.00
2022-12-18T15:10:13.183Z,37.00
2022-12-18T15:15:30.470Z,39.50
2022-12-18T15:20:10.973Z,37.80
2022-12-18T15:25:24.989Z,37.40
2022-12-18T15:30:19.259Z,37.20
2022-12-18T15:35:14.695Z,35.90
2022-12-18T15:40:13.201Z,36.40
2022-12-18T15:45:12.022Z,36.80
2022-12-18T15:50:10.821Z,36.50
2022-12-18T15:55:21.932Z,36.00
2022-12-18T16:00:12.674Z,38.00
2022-12-18T16:05:16.977Z,41.00
2022-12-18T16:10:11.051Z,42.10
2022-12-18T16:15:13.710Z,40.80
2022-12-18T16:20:14.965Z,38.30
2022-12-18T16:25:17.664Z,38.40
2022-12-18T16:30:13.340Z,38.20
2022-12-18T16:35:11.496Z,39.10
2022-12-18T16:40:13.526Z,36.50
2022-12-18T16:45:14.079Z,33.60
2022-12-18T16:50:11.285Z,33.60
2022-12-18T16:55:10.564Z,35.00
2022-12-18T17:00:12.499Z,32.00
2022-12-18T17:05:10.471Z,32.60
2022-12-18T17:10:10.450Z,30.70
2022-12-18T17:15:10.823Z,32.10
2022-12-18T17:20:10.822Z,28.60
2022-12-18T17:25:10.415Z,29.60
2022-12-18T17:30:11.730Z,29.60
2022-12-18T17:35:10.345Z,30.60
2022-12-18T17:40:10.738Z,28.10
2022-12-18T17:45:10.681Z,29.30
2022-12-18T17:50:10.544Z,29.90
2022-12-18T17:55:10.575Z,28.50
2022-12-18T18:00:11.994Z,30.10
2022-12-18T18:05:11.195Z,31.90
2022-12-18T18:10:10.540Z,31.40
2022-12-18T18:15:10.724Z,31.00
2022-12-18T18:20:11.020Z,33.60
2022-12-18T18:25:10.618Z,32.00
2022-12-18T18:30:11.743Z,30.00
2022-12-18T18:35:24.550Z,33.40
2022-12-18T18:40:11.286Z,31.60
2022-12-18T18:45:10.612Z,29.80
2022-12-18T18:50:12.091Z,29.90
2022-12-18T18:55:13.708Z,28.00
2022-12-18T19:00:12.989Z,28.10
2022-12-18T19:05:10.294Z,30.60
2022-12-18T19:10:10.366Z,32.80
2022-12-18T19:20:10.556Z,31.40
2022-12-18T19:25:10.274Z,30.20
2022-12-18T19:30:11.127Z,30.60
2022-12-18T19:35:10.521Z,30.90
2022-12-18T19:40:12.533Z,28.60
2022-12-18T19:45:10.512Z,27.40
2022-12-18T19:50:10.509Z,28.60
2022-12-18T19:55:10.296Z,27.20
2022-12-18T20:00:18.353Z,27.40
2022-12-18T20:05:12.798Z,28.20
2022-12-18T20:10:13.083Z,29.40
2022-12-18T20:15:10.897Z,26.60
2022-12-18T20:20:10.497Z,28.10
2022-12-18T20:25:10.458Z,25.30
2022-12-18T20:30:11.038Z,25.70
2022-12-18T20:35:10.675Z,23.80
2022-12-18T20:40:10.480Z,25.30
2022-12-18T20:45:10.481Z,25.10
2022-12-18T20:50:10.815Z,24.40
2022-12-18T20:55:10.517Z,22.40
2022-12-18T21:00:11.963Z,23.00
2022-12-18T21:05:10.269Z,25.50
2022-12-18T21:10:10.544Z,21.90
2022-12-18T21:15:10.345Z,22.20
2022-12-18T21:20:11.043Z,22.00
2022-12-18T21:25:10.195Z,20.80
2022-12-18T21:30:10.582Z,21.10
2022-12-18T21:35:10.736Z,22.30
2022-12-18T21:40:12.066Z,23.40
2022-12-18T21:45:11.237Z,20.50
2022-12-18T21:50:10.410Z,19.70
2022-12-18T21:55:10.386Z,20.80
2022-12-18T22:00:17.461Z,21.20
2022-12-18T22:05:10.295Z,21.70
2022-12-18T22:10:10.186Z,22.30
2022-12-18T22:15:12.415Z,22.50
2022-12-18T22:20:11.895Z,21.00
2022-12-18T22:25:10.484Z,24.20
2022-12-18T22:35:15.598Z,21.80
2022-12-18T22:40:23.540Z,22.80
2022-12-18T22:45:10.275Z,25.00
2022-12-18T22:50:12.687Z,19.80
2022-12-18T22:55:11.571Z,22.70
2022-12-18T23:00:10.664Z,21.90
2022-12-18T23:05:10.592Z,23.40
2022-12-18T23:10:10.347Z,22.90
2022-12-18T23:15:10.057Z,18.60
2022-12-18T23:20:10.808Z,21.50
2022-12-18T23:25:10.020Z,20.20
2022-12-18T23:30:10.995Z,20.70
2022-12-18T23:35:10.258Z,17.50
2022-12-18T23:40:10.412Z,17.40
2022-12-18T23:45:17.928Z,18.90
2022-12-18T23:50:10.327Z,18.30
2022-12-18T23:55:10.001Z,17.10
